sensor_id;sensor_type;location;lat;lon;timestamp;temperature;humidity
61841;DHT22;47773;53.174;6.614;2023-01-16T00:00:55;5.60;99.90
61841;DHT22;47773;53.174;6.614;2023-01-16T00:03:21;5.60;99.90
61841;DHT22;47773;53.174;6.614;2023-01-16T00:05:47;5.60;99.90
61841;DHT22;47773;53.174;6.614;2023-01-16T00:08:13;5.60;99.90
61841;DHT22;47773;53.174;6.614;2023-01-16T00:10:39;5.60;99.90
61841;DHT22;47773;53.174;6.614;2023-01-16T00:13:06;5.60;99.90
61841;DHT22;47773;53.174;6.614;2023-01-16T00:15:32;5.60;99.90
61841;DHT22;47773;53.174;6.614;2023-01-16T00:17:58;5.60;99.90
61841;DHT22;47773;53.174;6.614;2023-01-16T00:20:24;5.60;99.90
61841;DHT22;47773;53.174;6.614;2023-01-16T00:22:50;5.60;99.90
61841;DHT22;47773;53.174;6.614;2023-01-16T00:25:15;5.60;99.90
61841;DHT22;47773;53.174;6.614;2023-01-16T00:27:41;5.60;99.90
61841;DHT22;47773;53.174;6.614;2023-01-16T00:30:08;5.60;99.90
61841;DHT22;47773;53.174;6.614;2023-01-16T00:32:34;5.50;99.90
61841;DHT22;47773;53.174;6.614;2023-01-16T00:34:59;5.60;99.90
61841;DHT22;47773;53.174;6.614;2023-01-16T00:37:25;5.50;99.90
61841;DHT22;47773;53.174;6.614;2023-01-16T00:39:51;5.50;99.90
61841;DHT22;47773;53.174;6.614;2023-01-16T00:42:19;5.50;99.90
61841;DHT22;47773;53.174;6.614;2023-01-16T00:44:46;5.50;99.90
61841;DHT22;47773;53.174;6.614;2023-01-16T00:47:12;5.40;99.90
61841;DHT22;47773;53.174;6.614;2023-01-16T00:49:37;5.40;99.90
61841;DHT22;47773;53.174;6.614;2023-01-16T00:52:04;5.40;99.90
61841;DHT22;47773;53.174;6.614;2023-01-16T00:54:30;5.30;99.90
61841;DHT22;47773;53.174;6.614;2023-01-16T00:56:56;5.30;99.90
61841;DHT22;47773;53.174;6.614;2023-01-16T00:59:21;5.20;99.90
61841;DHT22;47773;53.174;6.614;2023-01-16T01:01:47;5.20;99.90
61841;DHT22;47773;53.174;6.614;2023-01-16T01:04:13;5.20;99.90
61841;DHT22;47773;53.174;6.614;2023-01-16T01:06:39;5.20;99.90
61841;DHT22;47773;53.174;6.614;2023-01-16T01:09:05;5.10;99.90
61841;DHT22;47773;53.174;6.614;2023-01-16T01:11:30;5.10;99.90
61841;DHT22;47773;53.174;6.614;2023-01-16T01:13:56;5.10;99.90
61841;DHT22;47773;53.174;6.614;2023-01-16T01:16:23;5.10;99.90
61841;DHT22;47773;53.174;6.614;2023-01-16T01:18:49;5.10;99.90
61841;DHT22;47773;53.174;6.614;2023-01-16T01:21:15;5.10;99.90
61841;DHT22;47773;53.174;6.614;2023-01-16T01:23:40;5.10;99.90
61841;DHT22;47773;53.174;6.614;2023-01-16T01:26:12;5.10;99.90
61841;DHT22;47773;53.174;6.614;2023-01-16T01:28:38;5.10;99.90
61841;DHT22;47773;53.174;6.614;2023-01-16T01:31:04;5.10;99.90
61841;DHT22;47773;53.174;6.614;2023-01-16T01:33:30;5.10;99.90
61841;DHT22;47773;53.174;6.614;2023-01-16T01:35:56;5.10;99.90
61841;DHT22;47773;53.174;6.614;2023-01-16T01:38:22;5.10;99.90
61841;DHT22;47773;53.174;6.614;2023-01-16T01:40:47;5.10;99.90
61841;DHT22;47773;53.174;6.614;2023-01-16T01:43:14;5.10;99.90
61841;DHT22;47773;53.174;6.614;2023-01-16T01:45:42;5.20;99.90
61841;DHT22;47773;53.174;6.614;2023-01-16T01:50:43;5.10;99.90
61841;DHT22;47773;53.174;6.614;2023-01-16T01:55:50;5.10;99.90
61841;DHT22;47773;53.174;6.614;2023-01-16T01:58:19;5.10;99.90
61841;DHT22;47773;53.174;6.614;2023-01-16T02:00:50;5.20;99.90
61841;DHT22;47773;53.174;6.614;2023-01-16T02:03:20;5.20;99.90
61841;DHT22;47773;53.174;6.614;2023-01-16T02:05:53;5.20;99.90
61841;DHT22;47773;53.174;6.614;2023-01-16T02:08:21;5.20;99.90
61841;DHT22;47773;53.174;6.614;2023-01-16T02:11:00;5.10;99.90
61841;DHT22;47773;53.174;6.614;2023-01-16T02:13:28;5.10;99.90
61841;DHT22;47773;53.174;6.614;2023-01-16T02:15:56;5.10;99.90
61841;DHT22;47773;53.174;6.614;2023-01-16T02:18:40;5.10;99.90
61841;DHT22;47773;53.174;6.614;2023-01-16T02:32:51;5.10;99.90
61841;DHT22;47773;53.174;6.614;2023-01-16T02:35:38;5.10;99.90
61841;DHT22;47773;53.174;6.614;2023-01-16T02:40:49;5.20;99.90
61841;DHT22;47773;53.174;6.614;2023-01-16T02:43:33;5.20;99.90
61841;DHT22;47773;53.174;6.614;2023-01-16T02:46:05;5.20;99.90
61841;DHT22;47773;53.174;6.614;2023-01-16T02:48:44;5.20;99.90
61841;DHT22;47773;53.174;6.614;2023-01-16T02:54:23;5.20;99.90
61841;DHT22;47773;53.174;6.614;2023-01-16T02:57:07;5.20;99.90
61841;DHT22;47773;53.174;6.614;2023-01-16T02:59:34;5.20;99.90
61841;DHT22;47773;53.174;6.614;2023-01-16T03:02:00;5.20;99.90
61841;DHT22;47773;53.174;6.614;2023-01-16T03:04:48;5.20;99.90
61841;DHT22;47773;53.174;6.614;2023-01-16T03:23:06;5.20;99.90
61841;DHT22;47773;53.174;6.614;2023-01-16T03:31:17;5.20;99.90
61841;DHT22;47773;53.174;6.614;2023-01-16T03:33:55;5.20;99.90
61841;DHT22;47773;53.174;6.614;2023-01-16T03:37:02;5.20;99.90
61841;DHT22;47773;53.174;6.614;2023-01-16T03:39:34;5.20;99.90
61841;DHT22;47773;53.174;6.614;2023-01-16T03:42:08;5.20;99.90
61841;DHT22;47773;53.174;6.614;2023-01-16T03:44:40;5.10;99.90
61841;DHT22;47773;53.174;6.614;2023-01-16T03:47:10;5.10;99.90
61841;DHT22;47773;53.174;6.614;2023-01-16T03:49:44;5.10;99.90
61841;DHT22;47773;53.174;6.614;2023-01-16T03:52:14;5.10;99.90
61841;DHT22;47773;53.174;6.614;2023-01-16T03:57:22;5.10;99.90
61841;DHT22;47773;53.174;6.614;2023-01-16T03:59:51;5.10;99.90
61841;DHT22;47773;53.174;6.614;2023-01-16T04:02:26;5.10;99.90
61841;DHT22;47773;53.174;6.614;2023-01-16T04:07:37;5.10;99.90
61841;DHT22;47773;53.174;6.614;2023-01-16T04:10:07;5.10;99.90
61841;DHT22;47773;53.174;6.614;2023-01-16T04:12:42;5.10;99.90
61841;DHT22;47773;53.174;6.614;2023-01-16T04:15:10;5.10;99.90
61841;DHT22;47773;53.174;6.614;2023-01-16T04:17:38;5.10;99.90
61841;DHT22;47773;53.174;6.614;2023-01-16T04:20:06;5.10;99.90
61841;DHT22;47773;53.174;6.614;2023-01-16T04:22:32;5.10;99.90
61841;DHT22;47773;53.174;6.614;2023-01-16T04:24:59;5.20;99.90
61841;DHT22;47773;53.174;6.614;2023-01-16T04:27:27;5.10;99.90
61841;DHT22;47773;53.174;6.614;2023-01-16T04:29:53;5.20;99.90
61841;DHT22;47773;53.174;6.614;2023-01-16T04:32:18;5.10;99.90
61841;DHT22;47773;53.174;6.614;2023-01-16T04:34:44;5.10;99.90
61841;DHT22;47773;53.174;6.614;2023-01-16T04:37:19;5.10;99.90
61841;DHT22;47773;53.174;6.614;2023-01-16T04:39:45;5.10;99.90
61841;DHT22;47773;53.174;6.614;2023-01-16T04:42:13;5.10;99.90
61841;DHT22;47773;53.174;6.614;2023-01-16T04:44:39;5.10;99.90
61841;DHT22;47773;53.174;6.614;2023-01-16T04:47:04;5.10;99.90
61841;DHT22;47773;53.174;6.614;2023-01-16T04:49:30;5.10;99.90
61841;DHT22;47773;53.174;6.614;2023-01-16T04:51:56;5.10;99.90
61841;DHT22;47773;53.174;6.614;2023-01-16T04:54:21;5.00;99.90
61841;DHT22;47773;53.174;6.614;2023-01-16T04:56:47;5.00;99.90
61841;DHT22;47773;53.174;6.614;2023-01-16T04:59:13;5.10;99.90
61841;DHT22;47773;53.174;6.614;2023-01-16T05:01:39;5.10;99.90
61841;DHT22;47773;53.174;6.614;2023-01-16T05:04:06;5.10;99.90
61841;DHT22;47773;53.174;6.614;2023-01-16T05:06:32;5.20;99.90
61841;DHT22;47773;53.174;6.614;2023-01-16T05:08:59;5.10;99.90
61841;DHT22;47773;53.174;6.614;2023-01-16T05:11:24;5.10;99.90
61841;DHT22;47773;53.174;6.614;2023-01-16T05:13:50;5.20;99.90
61841;DHT22;47773;53.174;6.614;2023-01-16T05:16:16;5.20;99.90
61841;DHT22;47773;53.174;6.614;2023-01-16T05:18:41;5.20;99.90
61841;DHT22;47773;53.174;6.614;2023-01-16T05:21:07;5.20;99.90
61841;DHT22;47773;53.174;6.614;2023-01-16T05:23:33;5.20;99.90
61841;DHT22;47773;53.174;6.614;2023-01-16T05:26:01;5.20;99.90
61841;DHT22;47773;53.174;6.614;2023-01-16T05:28:27;5.20;99.90
61841;DHT22;47773;53.174;6.614;2023-01-16T05:30:52;5.20;99.90
61841;DHT22;47773;53.174;6.614;2023-01-16T05:33:18;5.20;99.90
61841;DHT22;47773;53.174;6.614;2023-01-16T05:35:46;5.20;99.90
61841;DHT22;47773;53.174;6.614;2023-01-16T05:38:13;5.20;99.90
61841;DHT22;47773;53.174;6.614;2023-01-16T05:40:39;5.20;99.90
61841;DHT22;47773;53.174;6.614;2023-01-16T05:43:05;5.20;99.90
61841;DHT22;47773;53.174;6.614;2023-01-16T05:45:31;5.10;99.90
61841;DHT22;47773;53.174;6.614;2023-01-16T05:47:57;5.10;99.90
61841;DHT22;47773;53.174;6.614;2023-01-16T05:50:22;5.10;99.90
61841;DHT22;47773;53.174;6.614;2023-01-16T05:52:49;5.10;99.90
61841;DHT22;47773;53.174;6.614;2023-01-16T05:55:15;5.10;99.90
61841;DHT22;47773;53.174;6.614;2023-01-16T05:57:40;5.00;99.90
61841;DHT22;47773;53.174;6.614;2023-01-16T06:00:06;5.00;99.90
61841;DHT22;47773;53.174;6.614;2023-01-16T06:02:33;5.00;99.90
61841;DHT22;47773;53.174;6.614;2023-01-16T06:04:58;5.00;99.90
61841;DHT22;47773;53.174;6.614;2023-01-16T06:07:24;5.00;99.90
61841;DHT22;47773;53.174;6.614;2023-01-16T06:09:50;5.00;99.90
61841;DHT22;47773;53.174;6.614;2023-01-16T06:12:17;4.90;99.90
61841;DHT22;47773;53.174;6.614;2023-01-16T06:14:43;4.90;99.90
61841;DHT22;47773;53.174;6.614;2023-01-16T06:17:10;4.90;99.90
61841;DHT22;47773;53.174;6.614;2023-01-16T06:19:36;4.90;99.90
61841;DHT22;47773;53.174;6.614;2023-01-16T06:22:01;4.80;99.90
61841;DHT22;47773;53.174;6.614;2023-01-16T06:24:27;4.80;99.90
61841;DHT22;47773;53.174;6.614;2023-01-16T06:26:53;4.80;99.90
61841;DHT22;47773;53.174;6.614;2023-01-16T06:29:18;4.80;99.90
61841;DHT22;47773;53.174;6.614;2023-01-16T06:31:44;4.80;99.90
61841;DHT22;47773;53.174;6.614;2023-01-16T06:34:10;4.80;99.90
61841;DHT22;47773;53.174;6.614;2023-01-16T06:36:35;4.80;99.90
61841;DHT22;47773;53.174;6.614;2023-01-16T06:39:01;4.70;99.90
61841;DHT22;47773;53.174;6.614;2023-01-16T06:41:27;4.70;99.90
61841;DHT22;47773;53.174;6.614;2023-01-16T06:43:52;4.70;99.90
61841;DHT22;47773;53.174;6.614;2023-01-16T06:46:18;4.70;99.90
61841;DHT22;47773;53.174;6.614;2023-01-16T06:48:44;4.70;99.90
61841;DHT22;47773;53.174;6.614;2023-01-16T06:51:10;4.70;99.90
61841;DHT22;47773;53.174;6.614;2023-01-16T06:53:36;4.70;99.90
61841;DHT22;47773;53.174;6.614;2023-01-16T06:56:02;4.70;99.90
61841;DHT22;47773;53.174;6.614;2023-01-16T06:58:28;4.60;99.90
61841;DHT22;47773;53.174;6.614;2023-01-16T07:00:54;4.70;99.90
61841;DHT22;47773;53.174;6.614;2023-01-16T07:03:20;4.60;99.90
61841;DHT22;47773;53.174;6.614;2023-01-16T07:05:46;4.60;99.90
61841;DHT22;47773;53.174;6.614;2023-01-16T07:08:13;4.60;99.90
61841;DHT22;47773;53.174;6.614;2023-01-16T07:10:38;4.60;99.90
61841;DHT22;47773;53.174;6.614;2023-01-16T07:13:04;4.60;99.90
61841;DHT22;47773;53.174;6.614;2023-01-16T07:15:30;4.60;99.90
61841;DHT22;47773;53.174;6.614;2023-01-16T07:18:15;4.60;99.90
61841;DHT22;47773;53.174;6.614;2023-01-16T07:21:04;4.60;99.90
61841;DHT22;47773;53.174;6.614;2023-01-16T07:23:53;4.60;99.90
61841;DHT22;47773;53.174;6.614;2023-01-16T07:26:20;4.60;99.90
61841;DHT22;47773;53.174;6.614;2023-01-16T07:28:47;4.50;99.90
61841;DHT22;47773;53.174;6.614;2023-01-16T07:31:14;4.50;99.90
61841;DHT22;47773;53.174;6.614;2023-01-16T07:33:40;4.50;99.90
61841;DHT22;47773;53.174;6.614;2023-01-16T07:36:06;4.50;99.90
61841;DHT22;47773;53.174;6.614;2023-01-16T07:38:31;4.50;99.90
61841;DHT22;47773;53.174;6.614;2023-01-16T07:40:57;4.40;99.90
61841;DHT22;47773;53.174;6.614;2023-01-16T07:43:22;4.40;99.90
61841;DHT22;47773;53.174;6.614;2023-01-16T07:45:48;4.40;99.90
61841;DHT22;47773;53.174;6.614;2023-01-16T07:48:24;4.40;99.90
61841;DHT22;47773;53.174;6.614;2023-01-16T07:50:54;4.40;99.90
61841;DHT22;47773;53.174;6.614;2023-01-16T07:53:21;4.40;99.90
61841;DHT22;47773;53.174;6.614;2023-01-16T07:56:08;4.30;99.90
61841;DHT22;47773;53.174;6.614;2023-01-16T07:58:33;4.30;99.90
61841;DHT22;47773;53.174;6.614;2023-01-16T08:00:59;4.30;99.90
61841;DHT22;47773;53.174;6.614;2023-01-16T08:03:25;4.30;99.90
61841;DHT22;47773;53.174;6.614;2023-01-16T08:05:57;4.30;99.90
61841;DHT22;47773;53.174;6.614;2023-01-16T08:08:23;4.30;99.90
61841;DHT22;47773;53.174;6.614;2023-01-16T08:10:56;4.30;99.90
61841;DHT22;47773;53.174;6.614;2023-01-16T08:13:22;4.20;99.90
61841;DHT22;47773;53.174;6.614;2023-01-16T08:15:48;4.20;99.90
61841;DHT22;47773;53.174;6.614;2023-01-16T08:18:16;4.30;99.90
61841;DHT22;47773;53.174;6.614;2023-01-16T08:20:43;4.20;99.90
61841;DHT22;47773;53.174;6.614;2023-01-16T08:23:10;4.20;99.90
61841;DHT22;47773;53.174;6.614;2023-01-16T08:25:35;4.20;99.90
61841;DHT22;47773;53.174;6.614;2023-01-16T08:28:01;4.20;99.90
61841;DHT22;47773;53.174;6.614;2023-01-16T08:30:27;4.30;99.90
61841;DHT22;47773;53.174;6.614;2023-01-16T08:32:59;4.30;99.90
61841;DHT22;47773;53.174;6.614;2023-01-16T08:35:25;4.30;99.90
61841;DHT22;47773;53.174;6.614;2023-01-16T08:37:51;4.20;99.90
61841;DHT22;47773;53.174;6.614;2023-01-16T08:40:17;4.20;99.90
61841;DHT22;47773;53.174;6.614;2023-01-16T08:42:43;4.30;99.90
61841;DHT22;47773;53.174;6.614;2023-01-16T08:45:27;4.30;99.90
61841;DHT22;47773;53.174;6.614;2023-01-16T08:48:19;4.30;99.90
61841;DHT22;47773;53.174;6.614;2023-01-16T08:51:09;4.30;99.90
61841;DHT22;47773;53.174;6.614;2023-01-16T08:53:51;4.30;99.90
61841;DHT22;47773;53.174;6.614;2023-01-16T08:56:17;4.40;99.90
61841;DHT22;47773;53.174;6.614;2023-01-16T08:58:42;4.40;99.90
61841;DHT22;47773;53.174;6.614;2023-01-16T09:01:08;4.40;99.90
61841;DHT22;47773;53.174;6.614;2023-01-16T09:03:34;4.40;99.90
61841;DHT22;47773;53.174;6.614;2023-01-16T09:06:00;4.50;99.90
61841;DHT22;47773;53.174;6.614;2023-01-16T09:08:26;4.50;99.90
61841;DHT22;47773;53.174;6.614;2023-01-16T09:10:52;4.40;99.90
61841;DHT22;47773;53.174;6.614;2023-01-16T09:13:36;4.50;99.90
61841;DHT22;47773;53.174;6.614;2023-01-16T09:16:14;4.50;99.90
61841;DHT22;47773;53.174;6.614;2023-01-16T09:18:40;4.50;99.90
61841;DHT22;47773;53.174;6.614;2023-01-16T09:21:06;4.50;99.90
61841;DHT22;47773;53.174;6.614;2023-01-16T09:23:31;4.60;99.90
61841;DHT22;47773;53.174;6.614;2023-01-16T09:25:57;4.60;99.90
61841;DHT22;47773;53.174;6.614;2023-01-16T09:28:22;4.60;99.90
61841;DHT22;47773;53.174;6.614;2023-01-16T09:30:50;4.60;99.90
61841;DHT22;47773;53.174;6.614;2023-01-16T09:33:16;4.60;99.90
61841;DHT22;47773;53.174;6.614;2023-01-16T09:35:42;4.60;99.90
61841;DHT22;47773;53.174;6.614;2023-01-16T09:38:07;4.70;99.90
61841;DHT22;47773;53.174;6.614;2023-01-16T09:40:33;4.70;99.90
61841;DHT22;47773;53.174;6.614;2023-01-16T09:46:21;4.70;99.90
61841;DHT22;47773;53.174;6.614;2023-01-16T09:51:32;4.70;99.90
61841;DHT22;47773;53.174;6.614;2023-01-16T09:57:16;4.70;99.90
61841;DHT22;47773;53.174;6.614;2023-01-16T10:00:02;4.70;99.90
61841;DHT22;47773;53.174;6.614;2023-01-16T10:02:33;4.80;99.90
61841;DHT22;47773;53.174;6.614;2023-01-16T10:05:01;4.80;99.90
61841;DHT22;47773;53.174;6.614;2023-01-16T10:10:42;4.80;99.90
61841;DHT22;47773;53.174;6.614;2023-01-16T10:21:36;4.90;99.90
61841;DHT22;47773;53.174;6.614;2023-01-16T10:24:21;4.80;99.90
61841;DHT22;47773;53.174;6.614;2023-01-16T10:29:52;4.80;99.90
61841;DHT22;47773;53.174;6.614;2023-01-16T10:32:36;4.80;99.90
61841;DHT22;47773;53.174;6.614;2023-01-16T10:35:17;4.90;99.90
61841;DHT22;47773;53.174;6.614;2023-01-16T10:37:46;4.90;99.90
61841;DHT22;47773;53.174;6.614;2023-01-16T10:40:19;4.80;99.90
61841;DHT22;47773;53.174;6.614;2023-01-16T10:42:52;4.80;99.90
61841;DHT22;47773;53.174;6.614;2023-01-16T10:45:39;4.80;99.90
61841;DHT22;47773;53.174;6.614;2023-01-16T10:48:25;4.80;99.90
61841;DHT22;47773;53.174;6.614;2023-01-16T10:51:10;4.80;99.90
61841;DHT22;47773;53.174;6.614;2023-01-16T10:53:37;4.80;99.90
61841;DHT22;47773;53.174;6.614;2023-01-16T10:56:03;4.80;99.90
61841;DHT22;47773;53.174;6.614;2023-01-16T10:58:32;4.80;99.90
61841;DHT22;47773;53.174;6.614;2023-01-16T11:06:18;4.70;99.90
61841;DHT22;47773;53.174;6.614;2023-01-16T11:08:48;4.70;99.90
61841;DHT22;47773;53.174;6.614;2023-01-16T11:11:14;4.60;99.90
61841;DHT22;47773;53.174;6.614;2023-01-16T11:14:02;4.60;99.90
61841;DHT22;47773;53.174;6.614;2023-01-16T11:16:47;4.60;99.90
61841;DHT22;47773;53.174;6.614;2023-01-16T11:19:42;4.50;99.90
61841;DHT22;47773;53.174;6.614;2023-01-16T11:22:23;4.50;99.90
61841;DHT22;47773;53.174;6.614;2023-01-16T11:24:55;4.50;99.90
61841;DHT22;47773;53.174;6.614;2023-01-16T11:27:23;4.50;99.90
61841;DHT22;47773;53.174;6.614;2023-01-16T11:29:53;4.50;99.90
61841;DHT22;47773;53.174;6.614;2023-01-16T11:32:19;4.40;99.90
61841;DHT22;47773;53.174;6.614;2023-01-16T11:34:53;4.40;99.90
61841;DHT22;47773;53.174;6.614;2023-01-16T11:37:20;4.40;99.90
61841;DHT22;47773;53.174;6.614;2023-01-16T11:39:49;4.40;99.90
61841;DHT22;47773;53.174;6.614;2023-01-16T11:42:16;4.40;99.90
61841;DHT22;47773;53.174;6.614;2023-01-16T11:45:15;4.30;99.90
61841;DHT22;47773;53.174;6.614;2023-01-16T11:48:02;4.40;99.90
61841;DHT22;47773;53.174;6.614;2023-01-16T11:50:52;4.40;99.90
61841;DHT22;47773;53.174;6.614;2023-01-16T11:53:19;4.40;99.90
61841;DHT22;47773;53.174;6.614;2023-01-16T11:58:49;4.40;99.90
61841;DHT22;47773;53.174;6.614;2023-01-16T12:01:41;4.40;99.90
61841;DHT22;47773;53.174;6.614;2023-01-16T12:04:30;4.40;99.90
61841;DHT22;47773;53.174;6.614;2023-01-16T12:07:14;4.40;99.90
61841;DHT22;47773;53.174;6.614;2023-01-16T12:10:09;4.40;99.90
61841;DHT22;47773;53.174;6.614;2023-01-16T12:12:46;4.40;99.90
61841;DHT22;47773;53.174;6.614;2023-01-16T12:24:00;4.50;99.90
61841;DHT22;47773;53.174;6.614;2023-01-16T12:26:30;4.40;99.90
61841;DHT22;47773;53.174;6.614;2023-01-16T12:29:07;4.40;99.90
61841;DHT22;47773;53.174;6.614;2023-01-16T12:34:47;4.40;99.90
61841;DHT22;47773;53.174;6.614;2023-01-16T12:46:29;4.50;99.90
61841;DHT22;47773;53.174;6.614;2023-01-16T12:49:29;4.60;99.90
61841;DHT22;47773;53.174;6.614;2023-01-16T12:54:58;4.60;99.90
61841;DHT22;47773;53.174;6.614;2023-01-16T13:00:08;4.60;99.90
61841;DHT22;47773;53.174;6.614;2023-01-16T13:02:36;4.70;99.90
61841;DHT22;47773;53.174;6.614;2023-01-16T13:05:18;4.70;99.90
61841;DHT22;47773;53.174;6.614;2023-01-16T13:07:56;4.70;99.90
61841;DHT22;47773;53.174;6.614;2023-01-16T13:10:28;4.70;99.90
61841;DHT22;47773;53.174;6.614;2023-01-16T13:13:17;4.70;99.90
61841;DHT22;47773;53.174;6.614;2023-01-16T13:18:50;4.80;99.90
61841;DHT22;47773;53.174;6.614;2023-01-16T13:21:26;4.80;99.90
61841;DHT22;47773;53.174;6.614;2023-01-16T13:26:31;4.80;99.90
61841;DHT22;47773;53.174;6.614;2023-01-16T13:31:45;4.80;99.90
61841;DHT22;47773;53.174;6.614;2023-01-16T13:36:56;4.90;99.90
61841;DHT22;47773;53.174;6.614;2023-01-16T13:40:01;4.90;99.90
61841;DHT22;47773;53.174;6.614;2023-01-16T13:42:31;4.90;99.90
61841;DHT22;47773;53.174;6.614;2023-01-16T13:45:02;4.90;99.90
61841;DHT22;47773;53.174;6.614;2023-01-16T13:47:49;4.90;99.90
61841;DHT22;47773;53.174;6.614;2023-01-16T13:50:30;4.90;99.90
61841;DHT22;47773;53.174;6.614;2023-01-16T13:53:06;4.90;99.90
61841;DHT22;47773;53.174;6.614;2023-01-16T13:55:35;4.90;99.90
61841;DHT22;47773;53.174;6.614;2023-01-16T14:00:38;5.00;99.90
61841;DHT22;47773;53.174;6.614;2023-01-16T14:03:23;5.00;99.90
61841;DHT22;47773;53.174;6.614;2023-01-16T14:05:50;5.00;99.90
61841;DHT22;47773;53.174;6.614;2023-01-16T14:08:49;5.00;99.90
61841;DHT22;47773;53.174;6.614;2023-01-16T14:11:40;5.00;99.90
61841;DHT22;47773;53.174;6.614;2023-01-16T14:14:46;4.90;99.90
61841;DHT22;47773;53.174;6.614;2023-01-16T14:20:41;5.00;99.90
61841;DHT22;47773;53.174;6.614;2023-01-16T14:23:34;5.00;99.90
61841;DHT22;47773;53.174;6.614;2023-01-16T14:26:32;5.00;99.90
61841;DHT22;47773;53.174;6.614;2023-01-16T14:29:01;5.10;99.90
61841;DHT22;47773;53.174;6.614;2023-01-16T14:31:38;5.10;99.90
61841;DHT22;47773;53.174;6.614;2023-01-16T14:34:04;5.10;99.90
61841;DHT22;47773;53.174;6.614;2023-01-16T14:36:33;5.10;99.90
61841;DHT22;47773;53.174;6.614;2023-01-16T14:38:59;5.10;99.90
61841;DHT22;47773;53.174;6.614;2023-01-16T14:41:31;5.10;99.90
61841;DHT22;47773;53.174;6.614;2023-01-16T14:44:20;5.20;99.90
61841;DHT22;47773;53.174;6.614;2023-01-16T14:58:44;5.20;99.90
61841;DHT22;47773;53.174;6.614;2023-01-16T15:01:32;5.20;99.90
61841;DHT22;47773;53.174;6.614;2023-01-16T15:04:20;5.20;99.90
61841;DHT22;47773;53.174;6.614;2023-01-16T15:06:57;5.20;99.90
61841;DHT22;47773;53.174;6.614;2023-01-16T15:09:28;5.20;99.90
61841;DHT22;47773;53.174;6.614;2023-01-16T15:11:58;5.20;99.90
61841;DHT22;47773;53.174;6.614;2023-01-16T15:14:24;5.20;99.90
61841;DHT22;47773;53.174;6.614;2023-01-16T15:17:11;5.20;99.90
61841;DHT22;47773;53.174;6.614;2023-01-16T15:22:56;5.20;99.90
61841;DHT22;47773;53.174;6.614;2023-01-16T15:30:50;5.10;99.90
61841;DHT22;47773;53.174;6.614;2023-01-16T15:33:28;5.10;99.90
61841;DHT22;47773;53.174;6.614;2023-01-16T15:38:48;5.10;99.90
61841;DHT22;47773;53.174;6.614;2023-01-16T15:41:18;5.10;99.90
61841;DHT22;47773;53.174;6.614;2023-01-16T15:43:44;5.10;99.90
61841;DHT22;47773;53.174;6.614;2023-01-16T15:46:54;5.10;99.90
61841;DHT22;47773;53.174;6.614;2023-01-16T15:49:43;5.20;99.90
61841;DHT22;47773;53.174;6.614;2023-01-16T15:52:11;5.10;99.90
61841;DHT22;47773;53.174;6.614;2023-01-16T15:54:37;5.10;99.90
61841;DHT22;47773;53.174;6.614;2023-01-16T15:57:03;5.10;99.90
61841;DHT22;47773;53.174;6.614;2023-01-16T15:59:32;5.10;99.90
61841;DHT22;47773;53.174;6.614;2023-01-16T16:02:22;5.10;99.90
61841;DHT22;47773;53.174;6.614;2023-01-16T16:04:52;5.10;99.90
61841;DHT22;47773;53.174;6.614;2023-01-16T16:07:20;5.10;99.90
61841;DHT22;47773;53.174;6.614;2023-01-16T16:09:48;5.10;99.90
61841;DHT22;47773;53.174;6.614;2023-01-16T16:12:17;5.10;99.90
61841;DHT22;47773;53.174;6.614;2023-01-16T16:14:43;5.10;99.90
61841;DHT22;47773;53.174;6.614;2023-01-16T16:17:30;5.10;99.90
61841;DHT22;47773;53.174;6.614;2023-01-16T16:25:46;5.20;99.90
61841;DHT22;47773;53.174;6.614;2023-01-16T16:28:33;5.20;99.90
61841;DHT22;47773;53.174;6.614;2023-01-16T16:31:25;5.20;99.90
61841;DHT22;47773;53.174;6.614;2023-01-16T16:36:20;5.20;99.90
61841;DHT22;47773;53.174;6.614;2023-01-16T16:38:48;5.20;99.90
61841;DHT22;47773;53.174;6.614;2023-01-16T16:44:33;5.20;99.90
61841;DHT22;47773;53.174;6.614;2023-01-16T16:46:58;5.10;99.90
61841;DHT22;47773;53.174;6.614;2023-01-16T16:51:50;5.10;99.90
61841;DHT22;47773;53.174;6.614;2023-01-16T16:54:17;5.10;99.90
61841;DHT22;47773;53.174;6.614;2023-01-16T16:56:52;5.10;99.90
61841;DHT22;47773;53.174;6.614;2023-01-16T16:59:25;5.10;99.90
61841;DHT22;47773;53.174;6.614;2023-01-16T17:01:55;5.10;99.90
61841;DHT22;47773;53.174;6.614;2023-01-16T17:04:22;5.10;99.90
61841;DHT22;47773;53.174;6.614;2023-01-16T17:06:47;5.00;99.90
61841;DHT22;47773;53.174;6.614;2023-01-16T17:09:16;5.10;99.90
61841;DHT22;47773;53.174;6.614;2023-01-16T17:11:43;5.10;99.90
61841;DHT22;47773;53.174;6.614;2023-01-16T17:14:09;5.00;99.90
61841;DHT22;47773;53.174;6.614;2023-01-16T17:16:35;5.00;99.90
61841;DHT22;47773;53.174;6.614;2023-01-16T17:19:29;5.00;99.90
61841;DHT22;47773;53.174;6.614;2023-01-16T17:21:55;5.00;99.90
61841;DHT22;47773;53.174;6.614;2023-01-16T17:24:21;5.10;99.90
61841;DHT22;47773;53.174;6.614;2023-01-16T17:26:47;5.10;99.90
61841;DHT22;47773;53.174;6.614;2023-01-16T17:29:13;5.00;99.90
61841;DHT22;47773;53.174;6.614;2023-01-16T17:31:41;5.00;99.90
61841;DHT22;47773;53.174;6.614;2023-01-16T17:34:15;5.00;99.90
61841;DHT22;47773;53.174;6.614;2023-01-16T17:36:41;5.00;99.90
61841;DHT22;47773;53.174;6.614;2023-01-16T17:39:07;5.00;99.90
61841;DHT22;47773;53.174;6.614;2023-01-16T17:41:35;5.00;99.90
61841;DHT22;47773;53.174;6.614;2023-01-16T17:44:15;5.00;99.90
61841;DHT22;47773;53.174;6.614;2023-01-16T17:47:00;5.00;99.90
61841;DHT22;47773;53.174;6.614;2023-01-16T17:49:25;5.00;99.90
61841;DHT22;47773;53.174;6.614;2023-01-16T17:51:51;5.00;99.90
61841;DHT22;47773;53.174;6.614;2023-01-16T17:54:17;5.00;99.90
61841;DHT22;47773;53.174;6.614;2023-01-16T17:57:02;5.00;99.90
61841;DHT22;47773;53.174;6.614;2023-01-16T17:59:28;5.00;99.90
61841;DHT22;47773;53.174;6.614;2023-01-16T18:01:55;5.00;99.90
61841;DHT22;47773;53.174;6.614;2023-01-16T18:04:21;5.00;99.90
61841;DHT22;47773;53.174;6.614;2023-01-16T18:06:46;5.00;99.90
61841;DHT22;47773;53.174;6.614;2023-01-16T18:09:13;5.00;99.90
61841;DHT22;47773;53.174;6.614;2023-01-16T18:11:41;5.00;99.90
61841;DHT22;47773;53.174;6.614;2023-01-16T18:14:26;5.00;99.90
61841;DHT22;47773;53.174;6.614;2023-01-16T18:17:12;5.00;99.90
61841;DHT22;47773;53.174;6.614;2023-01-16T18:19:57;5.10;99.90
61841;DHT22;47773;53.174;6.614;2023-01-16T18:22:28;5.00;99.90
61841;DHT22;47773;53.174;6.614;2023-01-16T18:24:55;5.00;99.90
61841;DHT22;47773;53.174;6.614;2023-01-16T18:27:21;5.10;99.90
61841;DHT22;47773;53.174;6.614;2023-01-16T18:29:47;5.10;99.90
61841;DHT22;47773;53.174;6.614;2023-01-16T18:32:14;5.10;99.90
61841;DHT22;47773;53.174;6.614;2023-01-16T18:34:56;5.10;99.90
61841;DHT22;47773;53.174;6.614;2023-01-16T18:37:25;5.10;99.90
61841;DHT22;47773;53.174;6.614;2023-01-16T18:39:53;5.10;99.90
61841;DHT22;47773;53.174;6.614;2023-01-16T18:42:37;5.00;99.90
61841;DHT22;47773;53.174;6.614;2023-01-16T18:45:22;5.10;99.90
61841;DHT22;47773;53.174;6.614;2023-01-16T18:48:09;5.10;99.90
61841;DHT22;47773;53.174;6.614;2023-01-16T18:50:54;5.10;99.90
61841;DHT22;47773;53.174;6.614;2023-01-16T18:53:45;5.10;99.90